sensor_id;sensor_type;location;lat;lon;timestamp;temperature;humidity
1592;DHT22;789;51.612;7.510;2023-04-30T00:01:00;10.90;1.00
1592;DHT22;789;51.612;7.510;2023-04-30T00:03:27;10.90;1.00
1592;DHT22;789;51.612;7.510;2023-04-30T00:05:53;10.90;1.00
1592;DHT22;789;51.612;7.510;2023-04-30T00:08:20;11.00;1.00
1592;DHT22;789;51.612;7.510;2023-04-30T00:10:47;11.00;1.00
1592;DHT22;789;51.612;7.510;2023-04-30T00:13:14;10.90;1.00
1592;DHT22;789;51.612;7.510;2023-04-30T00:15:42;10.80;1.00
1592;DHT22;789;51.612;7.510;2023-04-30T00:18:08;10.80;1.00
1592;DHT22;789;51.612;7.510;2023-04-30T00:20:35;10.80;1.00
1592;DHT22;789;51.612;7.510;2023-04-30T00:23:02;10.80;1.00
1592;DHT22;789;51.612;7.510;2023-04-30T00:25:29;10.80;1.00
1592;DHT22;789;51.612;7.510;2023-04-30T00:27:55;10.70;1.00
1592;DHT22;789;51.612;7.510;2023-04-30T00:30:22;10.80;1.00
1592;DHT22;789;51.612;7.510;2023-04-30T00:32:50;10.80;1.00
1592;DHT22;789;51.612;7.510;2023-04-30T00:35:17;10.70;1.00
1592;DHT22;789;51.612;7.510;2023-04-30T00:37:44;10.70;1.00
1592;DHT22;789;51.612;7.510;2023-04-30T00:40:11;10.60;1.00
1592;DHT22;789;51.612;7.510;2023-04-30T00:42:38;10.60;1.00
1592;DHT22;789;51.612;7.510;2023-04-30T00:45:06;10.60;1.00
1592;DHT22;789;51.612;7.510;2023-04-30T00:47:33;10.50;1.00
1592;DHT22;789;51.612;7.510;2023-04-30T00:50:01;10.50;1.00
1592;DHT22;789;51.612;7.510;2023-04-30T00:52:28;10.50;1.00
1592;DHT22;789;51.612;7.510;2023-04-30T00:54:55;10.40;1.00
1592;DHT22;789;51.612;7.510;2023-04-30T00:57:21;10.40;1.00
1592;DHT22;789;51.612;7.510;2023-04-30T00:59:48;10.40;1.00
1592;DHT22;789;51.612;7.510;2023-04-30T01:02:16;10.20;1.00
1592;DHT22;789;51.612;7.510;2023-04-30T01:04:43;10.20;1.00
1592;DHT22;789;51.612;7.510;2023-04-30T01:07:11;10.20;1.00
1592;DHT22;789;51.612;7.510;2023-04-30T01:09:37;10.20;1.00
1592;DHT22;789;51.612;7.510;2023-04-30T01:12:14;10.10;1.00
1592;DHT22;789;51.612;7.510;2023-04-30T01:14:52;10.10;1.00
1592;DHT22;789;51.612;7.510;2023-04-30T01:17:25;10.10;1.00
1592;DHT22;789;51.612;7.510;2023-04-30T01:19:54;10.00;1.00
1592;DHT22;789;51.612;7.510;2023-04-30T01:22:31;10.00;1.00
1592;DHT22;789;51.612;7.510;2023-04-30T01:25:13;9.90;1.00
1592;DHT22;789;51.612;7.510;2023-04-30T01:28:07;9.80;1.00
1592;DHT22;789;51.612;7.510;2023-04-30T01:30:35;9.80;1.00
1592;DHT22;789;51.612;7.510;2023-04-30T01:33:02;9.80;1.00
1592;DHT22;789;51.612;7.510;2023-04-30T01:35:58;9.70;1.00
1592;DHT22;789;51.612;7.510;2023-04-30T01:38:55;9.60;1.00
1592;DHT22;789;51.612;7.510;2023-04-30T01:41:31;9.50;1.00
1592;DHT22;789;51.612;7.510;2023-04-30T01:44:09;9.50;1.00
1592;DHT22;789;51.612;7.510;2023-04-30T01:46:39;9.50;1.00
1592;DHT22;789;51.612;7.510;2023-04-30T01:49:14;9.40;1.00
1592;DHT22;789;51.612;7.510;2023-04-30T01:51:43;9.40;1.00
1592;DHT22;789;51.612;7.510;2023-04-30T01:54:16;9.30;1.00
1592;DHT22;789;51.612;7.510;2023-04-30T01:56:47;9.30;1.00
1592;DHT22;789;51.612;7.510;2023-04-30T01:59:18;9.30;1.00
1592;DHT22;789;51.612;7.510;2023-04-30T02:01:45;9.20;1.00
1592;DHT22;789;51.612;7.510;2023-04-30T02:04:12;9.20;1.00
1592;DHT22;789;51.612;7.510;2023-04-30T02:06:39;9.20;1.00
1592;DHT22;789;51.612;7.510;2023-04-30T02:09:05;9.20;1.00
1592;DHT22;789;51.612;7.510;2023-04-30T02:11:32;9.20;1.00
1592;DHT22;789;51.612;7.510;2023-04-30T02:13:59;9.10;1.00
1592;DHT22;789;51.612;7.510;2023-04-30T02:16:27;9.10;1.00
1592;DHT22;789;51.612;7.510;2023-04-30T02:18:53;9.10;1.00
1592;DHT22;789;51.612;7.510;2023-04-30T02:21:20;9.10;1.00
1592;DHT22;789;51.612;7.510;2023-04-30T02:23:47;9.10;1.00
1592;DHT22;789;51.612;7.510;2023-04-30T02:26:14;9.10;1.00
1592;DHT22;789;51.612;7.510;2023-04-30T02:28:40;9.10;1.00
1592;DHT22;789;51.612;7.510;2023-04-30T02:31:07;9.10;1.00
1592;DHT22;789;51.612;7.510;2023-04-30T02:33:35;9.00;1.00
1592;DHT22;789;51.612;7.510;2023-04-30T02:36:02;9.00;1.00
1592;DHT22;789;51.612;7.510;2023-04-30T02:38:29;9.00;1.00
1592;DHT22;789;51.612;7.510;2023-04-30T02:40:55;9.00;1.00
1592;DHT22;789;51.612;7.510;2023-04-30T02:43:22;9.00;1.00
1592;DHT22;789;51.612;7.510;2023-04-30T02:45:49;9.00;1.00
1592;DHT22;789;51.612;7.510;2023-04-30T02:48:15;8.90;1.00
1592;DHT22;789;51.612;7.510;2023-04-30T02:50:43;8.90;1.00
1592;DHT22;789;51.612;7.510;2023-04-30T02:53:10;8.90;1.00
1592;DHT22;789;51.612;7.510;2023-04-30T02:55:37;8.90;1.00
1592;DHT22;789;51.612;7.510;2023-04-30T02:58:04;8.90;1.00
1592;DHT22;789;51.612;7.510;2023-04-30T03:00:30;8.90;1.00
1592;DHT22;789;51.612;7.510;2023-04-30T03:02:57;8.90;1.00
1592;DHT22;789;51.612;7.510;2023-04-30T03:05:24;8.90;1.00
1592;DHT22;789;51.612;7.510;2023-04-30T03:07:52;8.90;1.00
1592;DHT22;789;51.612;7.510;2023-04-30T03:10:18;8.80;1.00
1592;DHT22;789;51.612;7.510;2023-04-30T03:12:45;8.80;1.00
1592;DHT22;789;51.612;7.510;2023-04-30T03:15:12;8.70;1.00
1592;DHT22;789;51.612;7.510;2023-04-30T03:17:39;8.70;1.00
1592;DHT22;789;51.612;7.510;2023-04-30T03:20:06;8.70;1.00
1592;DHT22;789;51.612;7.510;2023-04-30T03:22:33;8.60;1.00
1592;DHT22;789;51.612;7.510;2023-04-30T03:25:01;8.60;1.00
1592;DHT22;789;51.612;7.510;2023-04-30T03:27:28;8.60;1.00
1592;DHT22;789;51.612;7.510;2023-04-30T03:29:55;8.60;1.00
1592;DHT22;789;51.612;7.510;2023-04-30T03:32:22;8.60;1.00
1592;DHT22;789;51.612;7.510;2023-04-30T03:34:49;8.50;1.00
1592;DHT22;789;51.612;7.510;2023-04-30T03:37:16;8.50;1.00
1592;DHT22;789;51.612;7.510;2023-04-30T03:39:42;8.50;1.00
1592;DHT22;789;51.612;7.510;2023-04-30T03:42:10;8.50;1.00
1592;DHT22;789;51.612;7.510;2023-04-30T03:44:37;8.60;1.00
1592;DHT22;789;51.612;7.510;2023-04-30T03:47:04;8.60;1.00
1592;DHT22;789;51.612;7.510;2023-04-30T03:49:31;8.60;1.00
1592;DHT22;789;51.612;7.510;2023-04-30T03:51:58;8.60;1.00
1592;DHT22;789;51.612;7.510;2023-04-30T03:54:25;8.60;1.00
1592;DHT22;789;51.612;7.510;2023-04-30T03:56:52;8.60;1.00
1592;DHT22;789;51.612;7.510;2023-04-30T03:59:20;8.60;1.00
1592;DHT22;789;51.612;7.510;2023-04-30T04:01:47;8.60;1.00
1592;DHT22;789;51.612;7.510;2023-04-30T04:04:13;8.60;1.00
1592;DHT22;789;51.612;7.510;2023-04-30T04:06:40;8.60;1.00
1592;DHT22;789;51.612;7.510;2023-04-30T04:09:07;8.60;1.00
1592;DHT22;789;51.612;7.510;2023-04-30T04:11:34;8.60;1.00
1592;DHT22;789;51.612;7.510;2023-04-30T04:14:00;8.60;1.00
1592;DHT22;789;51.612;7.510;2023-04-30T04:16:28;8.60;1.00
1592;DHT22;789;51.612;7.510;2023-04-30T04:18:55;8.60;1.00
1592;DHT22;789;51.612;7.510;2023-04-30T04:21:22;8.60;1.00
1592;DHT22;789;51.612;7.510;2023-04-30T04:23:48;8.60;1.00
1592;DHT22;789;51.612;7.510;2023-04-30T04:26:15;8.60;1.00
1592;DHT22;789;51.612;7.510;2023-04-30T04:28:44;8.60;1.00
1592;DHT22;789;51.612;7.510;2023-04-30T04:31:15;8.60;1.00
1592;DHT22;789;51.612;7.510;2023-04-30T04:33:43;8.60;1.00
1592;DHT22;789;51.612;7.510;2023-04-30T04:36:10;8.60;1.00
1592;DHT22;789;51.612;7.510;2023-04-30T04:38:36;8.60;1.00
1592;DHT22;789;51.612;7.510;2023-04-30T04:41:03;8.60;1.00
1592;DHT22;789;51.612;7.510;2023-04-30T04:43:30;8.50;1.00
1592;DHT22;789;51.612;7.510;2023-04-30T04:45:56;8.50;1.00
1592;DHT22;789;51.612;7.510;2023-04-30T04:48:23;8.50;1.00
1592;DHT22;789;51.612;7.510;2023-04-30T04:50:51;8.50;1.00
1592;DHT22;789;51.612;7.510;2023-04-30T04:53:18;8.50;1.00
1592;DHT22;789;51.612;7.510;2023-04-30T04:55:44;8.60;1.00
1592;DHT22;789;51.612;7.510;2023-04-30T04:58:11;8.70;1.00
1592;DHT22;789;51.612;7.510;2023-04-30T05:00:38;8.70;1.00
1592;DHT22;789;51.612;7.510;2023-04-30T05:03:05;8.70;1.00
1592;DHT22;789;51.612;7.510;2023-04-30T05:05:31;8.80;1.00
1592;DHT22;789;51.612;7.510;2023-04-30T05:07:59;8.80;1.00
1592;DHT22;789;51.612;7.510;2023-04-30T05:10:26;8.90;1.00
1592;DHT22;789;51.612;7.510;2023-04-30T05:12:53;8.90;1.00
1592;DHT22;789;51.612;7.510;2023-04-30T05:15:19;8.90;1.00
1592;DHT22;789;51.612;7.510;2023-04-30T05:17:46;9.00;1.00
1592;DHT22;789;51.612;7.510;2023-04-30T05:20:13;9.10;1.00
1592;DHT22;789;51.612;7.510;2023-04-30T05:22:39;9.10;1.00
1592;DHT22;789;51.612;7.510;2023-04-30T05:25:08;9.20;1.00
1592;DHT22;789;51.612;7.510;2023-04-30T05:27:35;9.20;1.00
1592;DHT22;789;51.612;7.510;2023-04-30T05:30:02;9.30;1.00
1592;DHT22;789;51.612;7.510;2023-04-30T05:32:29;9.40;1.00
1592;DHT22;789;51.612;7.510;2023-04-30T05:34:56;9.40;1.00
1592;DHT22;789;51.612;7.510;2023-04-30T05:37:22;9.50;1.00
1592;DHT22;789;51.612;7.510;2023-04-30T05:39:49;9.60;1.00
1592;DHT22;789;51.612;7.510;2023-04-30T05:42:19;9.70;1.00
1592;DHT22;789;51.612;7.510;2023-04-30T05:44:46;9.80;1.00
1592;DHT22;789;51.612;7.510;2023-04-30T05:47:13;9.80;1.00
1592;DHT22;789;51.612;7.510;2023-04-30T05:49:40;9.90;1.00
1592;DHT22;789;51.612;7.510;2023-04-30T05:52:07;9.80;1.00
1592;DHT22;789;51.612;7.510;2023-04-30T05:54:35;9.90;1.00
1592;DHT22;789;51.612;7.510;2023-04-30T05:57:02;9.90;1.00
1592;DHT22;789;51.612;7.510;2023-04-30T05:59:30;10.00;1.00
1592;DHT22;789;51.612;7.510;2023-04-30T06:01:56;10.20;1.00
1592;DHT22;789;51.612;7.510;2023-04-30T06:04:23;10.40;1.00
1592;DHT22;789;51.612;7.510;2023-04-30T06:06:50;10.50;1.00
1592;DHT22;789;51.612;7.510;2023-04-30T06:09:17;10.60;1.00
1592;DHT22;789;51.612;7.510;2023-04-30T06:11:43;10.80;1.00
1592;DHT22;789;51.612;7.510;2023-04-30T06:14:14;11.10;1.00
1592;DHT22;789;51.612;7.510;2023-04-30T06:16:43;11.20;1.00
1592;DHT22;789;51.612;7.510;2023-04-30T06:19:10;11.40;1.00
1592;DHT22;789;51.612;7.510;2023-04-30T06:21:36;11.70;1.00
1592;DHT22;789;51.612;7.510;2023-04-30T06:24:03;11.80;1.00
1592;DHT22;789;51.612;7.510;2023-04-30T06:26:31;12.00;1.00
1592;DHT22;789;51.612;7.510;2023-04-30T06:28:58;12.00;1.00
1592;DHT22;789;51.612;7.510;2023-04-30T06:31:25;12.00;1.00
1592;DHT22;789;51.612;7.510;2023-04-30T06:33:53;12.00;1.00
1592;DHT22;789;51.612;7.510;2023-04-30T06:36:20;12.00;1.00
1592;DHT22;789;51.612;7.510;2023-04-30T06:38:46;12.10;1.00
1592;DHT22;789;51.612;7.510;2023-04-30T06:41:13;12.10;1.00
1592;DHT22;789;51.612;7.510;2023-04-30T06:43:40;12.10;1.00
1592;DHT22;789;51.612;7.510;2023-04-30T06:46:07;12.20;1.00
1592;DHT22;789;51.612;7.510;2023-04-30T06:48:34;12.40;1.00
1592;DHT22;789;51.612;7.510;2023-04-30T06:51:02;12.50;1.00
1592;DHT22;789;51.612;7.510;2023-04-30T06:53:28;12.70;1.00
1592;DHT22;789;51.612;7.510;2023-04-30T06:55:55;13.00;1.00
1592;DHT22;789;51.612;7.510;2023-04-30T06:58:22;13.20;1.00
1592;DHT22;789;51.612;7.510;2023-04-30T07:00:49;13.30;1.00
1592;DHT22;789;51.612;7.510;2023-04-30T07:03:15;13.40;1.00
1592;DHT22;789;51.612;7.510;2023-04-30T07:05:42;13.40;1.00
1592;DHT22;789;51.612;7.510;2023-04-30T07:08:10;13.60;1.00
1592;DHT22;789;51.612;7.510;2023-04-30T07:10:37;13.80;1.00
1592;DHT22;789;51.612;7.510;2023-04-30T07:13:04;13.80;1.00
1592;DHT22;789;51.612;7.510;2023-04-30T07:15:32;13.90;1.00
1592;DHT22;789;51.612;7.510;2023-04-30T07:17:58;14.00;1.00
1592;DHT22;789;51.612;7.510;2023-04-30T07:20:25;14.20;1.00
1592;DHT22;789;51.612;7.510;2023-04-30T07:22:52;14.50;1.00
1592;DHT22;789;51.612;7.510;2023-04-30T07:25:21;14.70;1.00
1592;DHT22;789;51.612;7.510;2023-04-30T07:27:49;15.00;1.00
1592;DHT22;789;51.612;7.510;2023-04-30T07:30:20;15.30;1.00
1592;DHT22;789;51.612;7.510;2023-04-30T07:32:47;15.80;1.00
1592;DHT22;789;51.612;7.510;2023-04-30T07:35:14;16.30;1.00
1592;DHT22;789;51.612;7.510;2023-04-30T07:37:41;16.90;1.00
1592;DHT22;789;51.612;7.510;2023-04-30T07:40:09;17.60;1.00
1592;DHT22;789;51.612;7.510;2023-04-30T07:42:38;18.10;1.00
1592;DHT22;789;51.612;7.510;2023-04-30T07:45:07;18.80;1.00
1592;DHT22;789;51.612;7.510;2023-04-30T07:47:33;19.50;1.00
1592;DHT22;789;51.612;7.510;2023-04-30T07:50:00;20.10;1.00
1592;DHT22;789;51.612;7.510;2023-04-30T07:52:27;20.80;1.00
1592;DHT22;789;51.612;7.510;2023-04-30T07:54:54;21.60;1.00
1592;DHT22;789;51.612;7.510;2023-04-30T07:57:21;22.40;1.00
1592;DHT22;789;51.612;7.510;2023-04-30T07:59:49;23.10;1.00
1592;DHT22;789;51.612;7.510;2023-04-30T08:02:15;23.70;1.00
1592;DHT22;789;51.612;7.510;2023-04-30T08:04:42;24.30;1.00
1592;DHT22;789;51.612;7.510;2023-04-30T08:07:09;24.30;1.00
1592;DHT22;789;51.612;7.510;2023-04-30T08:09:35;24.40;1.00
1592;DHT22;789;51.612;7.510;2023-04-30T08:12:02;24.50;1.00
1592;DHT22;789;51.612;7.510;2023-04-30T08:14:31;24.90;1.00
1592;DHT22;789;51.612;7.510;2023-04-30T08:16:59;25.50;1.00
1592;DHT22;789;51.612;7.510;2023-04-30T08:19:27;26.30;1.00
1592;DHT22;789;51.612;7.510;2023-04-30T08:21:54;26.90;1.00
1592;DHT22;789;51.612;7.510;2023-04-30T08:24:20;27.40;1.00
1592;DHT22;789;51.612;7.510;2023-04-30T08:26:47;27.70;1.00
1592;DHT22;789;51.612;7.510;2023-04-30T08:29:14;27.90;1.00
1592;DHT22;789;51.612;7.510;2023-04-30T08:31:41;28.30;1.00
1592;DHT22;789;51.612;7.510;2023-04-30T08:34:09;28.70;1.00
1592;DHT22;789;51.612;7.510;2023-04-30T08:36:35;29.00;1.00
1592;DHT22;789;51.612;7.510;2023-04-30T08:39:02;29.70;1.00
1592;DHT22;789;51.612;7.510;2023-04-30T08:41:31;30.10;1.00
1592;DHT22;789;51.612;7.510;2023-04-30T08:44:00;30.60;1.00
1592;DHT22;789;51.612;7.510;2023-04-30T08:46:30;31.10;1.00
1592;DHT22;789;51.612;7.510;2023-04-30T08:48:57;31.10;1.00
1592;DHT22;789;51.612;7.510;2023-04-30T08:51:26;31.30;1.00
1592;DHT22;789;51.612;7.510;2023-04-30T08:53:56;31.90;1.00
1592;DHT22;789;51.612;7.510;2023-04-30T08:56:23;32.20;1.00
1592;DHT22;789;51.612;7.510;2023-04-30T08:58:49;32.70;1.00
1592;DHT22;789;51.612;7.510;2023-04-30T09:01:16;32.50;1.00
1592;DHT22;789;51.612;7.510;2023-04-30T09:03:43;32.50;1.00
1592;DHT22;789;51.612;7.510;2023-04-30T09:06:14;33.00;1.00
1592;DHT22;789;51.612;7.510;2023-04-30T09:08:43;33.90;1.00
1592;DHT22;789;51.612;7.510;2023-04-30T09:11:22;34.40;1.00
1592;DHT22;789;51.612;7.510;2023-04-30T09:13:50;34.90;1.00
1592;DHT22;789;51.612;7.510;2023-04-30T09:16:18;34.80;1.00
1592;DHT22;789;51.612;7.510;2023-04-30T09:18:45;34.80;1.00
1592;DHT22;789;51.612;7.510;2023-04-30T09:21:14;35.00;1.00
1592;DHT22;789;51.612;7.510;2023-04-30T09:23:55;35.20;1.00
1592;DHT22;789;51.612;7.510;2023-04-30T09:26:26;35.20;1.00
1592;DHT22;789;51.612;7.510;2023-04-30T09:28:54;35.00;1.00
1592;DHT22;789;51.612;7.510;2023-04-30T09:31:23;35.10;1.00
1592;DHT22;789;51.612;7.510;2023-04-30T09:33:50;35.30;1.00
1592;DHT22;789;51.612;7.510;2023-04-30T09:36:17;35.50;1.00
1592;DHT22;789;51.612;7.510;2023-04-30T09:38:44;35.50;1.00
1592;DHT22;789;51.612;7.510;2023-04-30T09:41:22;35.50;1.00
1592;DHT22;789;51.612;7.510;2023-04-30T09:43:49;35.10;1.00
1592;DHT22;789;51.612;7.510;2023-04-30T09:46:18;34.40;1.00
1592;DHT22;789;51.612;7.510;2023-04-30T09:48:45;34.40;1.00
1592;DHT22;789;51.612;7.510;2023-04-30T09:51:11;34.50;1.00
1592;DHT22;789;51.612;7.510;2023-04-30T09:53:41;34.70;1.00
1592;DHT22;789;51.612;7.510;2023-04-30T09:56:11;34.80;1.00
1592;DHT22;789;51.612;7.510;2023-04-30T09:58:42;35.30;1.00
1592;DHT22;789;51.612;7.510;2023-04-30T10:01:09;35.20;1.00
1592;DHT22;789;51.612;7.510;2023-04-30T10:03:38;34.90;1.00
1592;DHT22;789;51.612;7.510;2023-04-30T10:06:08;34.90;1.00
1592;DHT22;789;51.612;7.510;2023-04-30T10:08:38;35.00;1.00
1592;DHT22;789;51.612;7.510;2023-04-30T10:11:07;34.70;1.00
1592;DHT22;789;51.612;7.510;2023-04-30T10:13:39;35.20;1.00
1592;DHT22;789;51.612;7.510;2023-04-30T10:16:14;35.80;1.00
1592;DHT22;789;51.612;7.510;2023-04-30T10:18:45;35.90;1.00
1592;DHT22;789;51.612;7.510;2023-04-30T10:21:17;35.90;1.00
1592;DHT22;789;51.612;7.510;2023-04-30T10:23:46;36.10;1.00
1592;DHT22;789;51.612;7.510;2023-04-30T10:26:13;36.00;1.00
1592;DHT22;789;51.612;7.510;2023-04-30T10:28:43;36.20;1.00
1592;DHT22;789;51.612;7.510;2023-04-30T10:31:11;36.30;1.00
1592;DHT22;789;51.612;7.510;2023-04-30T10:33:45;36.40;1.00
1592;DHT22;789;51.612;7.510;2023-04-30T10:36:22;36.90;1.00
1592;DHT22;789;51.612;7.510;2023-04-30T10:38:51;36.70;1.00
1592;DHT22;789;51.612;7.510;2023-04-30T10:41:19;36.60;1.00
1592;DHT22;789;51.612;7.510;2023-04-30T10:43:50;36.40;1.00
1592;DHT22;789;51.612;7.510;2023-04-30T10:46:21;36.50;1.00
1592;DHT22;789;51.612;7.510;2023-04-30T10:48:49;36.40;1.00
1592;DHT22;789;51.612;7.510;2023-04-30T10:51:19;36.30;1.00
1592;DHT22;789;51.612;7.510;2023-04-30T10:53:48;35.70;1.00
1592;DHT22;789;51.612;7.510;2023-04-30T10:56:28;35.50;1.00
1592;DHT22;789;51.612;7.510;2023-04-30T10:58:59;35.10;1.00
1592;DHT22;789;51.612;7.510;2023-04-30T11:01:27;34.70;1.00
1592;DHT22;789;51.612;7.510;2023-04-30T11:04:05;34.70;1.00
1592;DHT22;789;51.612;7.510;2023-04-30T11:06:49;35.20;1.00
1592;DHT22;789;51.612;7.510;2023-04-30T11:09:33;35.50;1.00
1592;DHT22;789;51.612;7.510;2023-04-30T11:12:01;35.40;1.00
1592;DHT22;789;51.612;7.510;2023-04-30T11:14:31;35.40;1.00
1592;DHT22;789;51.612;7.510;2023-04-30T11:16:58;34.90;1.00
1592;DHT22;789;51.612;7.510;2023-04-30T11:19:26;34.70;1.00
1592;DHT22;789;51.612;7.510;2023-04-30T11:22:15;34.50;1.00
1592;DHT22;789;51.612;7.510;2023-04-30T11:24:53;34.30;1.00
1592;DHT22;789;51.612;7.510;2023-04-30T11:27:21;34.30;1.00
1592;DHT22;789;51.612;7.510;2023-04-30T11:29:50;34.40;1.00
1592;DHT22;789;51.612;7.510;2023-04-30T11:32:17;34.70;1.00
1592;DHT22;789;51.612;7.510;2023-04-30T11:34:45;34.60;1.00
1592;DHT22;789;51.612;7.510;2023-04-30T11:37:19;34.20;1.00
1592;DHT22;789;51.612;7.510;2023-04-30T11:39:47;33.90;1.00
1592;DHT22;789;51.612;7.510;2023-04-30T11:42:17;33.60;1.00
1592;DHT22;789;51.612;7.510;2023-04-30T11:44:44;33.00;1.00
1592;DHT22;789;51.612;7.510;2023-04-30T11:47:13;31.70;1.00
1592;DHT22;789;51.612;7.510;2023-04-30T11:49:40;30.50;1.00
1592;DHT22;789;51.612;7.510;2023-04-30T11:52:08;29.60;1.00
1592;DHT22;789;51.612;7.510;2023-04-30T11:54:35;28.60;1.00
1592;DHT22;789;51.612;7.510;2023-04-30T11:57:03;27.50;1.00
1592;DHT22;789;51.612;7.510;2023-04-30T11:59:30;26.40;1.00
1592;DHT22;789;51.612;7.510;2023-04-30T12:02:02;25.40;1.00
1592;DHT22;789;51.612;7.510;2023-04-30T12:04:35;24.40;1.00
1592;DHT22;789;51.612;7.510;2023-04-30T12:07:02;23.60;1.00
1592;DHT22;789;51.612;7.510;2023-04-30T12:09:29;23.00;1.00
1592;DHT22;789;51.612;7.510;2023-04-30T12:11:56;22.30;1.00
1592;DHT22;789;51.612;7.510;2023-04-30T12:14:24;21.90;1.00
1592;DHT22;789;51.612;7.510;2023-04-30T12:16:51;21.40;1.00
1592;DHT22;789;51.612;7.510;2023-04-30T12:19:19;21.00;1.00
1592;DHT22;789;51.612;7.510;2023-04-30T12:21:47;20.70;1.00
1592;DHT22;789;51.612;7.510;2023-04-30T12:24:16;20.40;1.00
1592;DHT22;789;51.612;7.510;2023-04-30T12:26:44;20.10;1.00
1592;DHT22;789;51.612;7.510;2023-04-30T12:29:14;19.90;1.00
1592;DHT22;789;51.612;7.510;2023-04-30T12:31:41;19.80;1.00
1592;DHT22;789;51.612;7.510;2023-04-30T12:34:14;19.70;1.00
1592;DHT22;789;51.612;7.510;2023-04-30T12:36:41;19.70;1.00
1592;DHT22;789;51.612;7.510;2023-04-30T12:39:14;19.60;1.00
1592;DHT22;789;51.612;7.510;2023-04-30T12:41:43;19.50;1.00
1592;DHT22;789;51.612;7.510;2023-04-30T12:44:14;19.30;1.00
1592;DHT22;789;51.612;7.510;2023-04-30T12:46:40;19.30;1.00
1592;DHT22;789;51.612;7.510;2023-04-30T12:49:07;19.20;1.00
1592;DHT22;789;51.612;7.510;2023-04-30T12:51:35;19.30;1.00
1592;DHT22;789;51.612;7.510;2023-04-30T12:54:04;19.20;1.00
1592;DHT22;789;51.612;7.510;2023-04-30T12:56:32;19.20;1.00
1592;DHT22;789;51.612;7.510;2023-04-30T12:58:59;19.10;1.00
1592;DHT22;789;51.612;7.510;2023-04-30T13:01:29;19.10;1.00
1592;DHT22;789;51.612;7.510;2023-04-30T13:03:57;19.00;1.00
1592;DHT22;789;51.612;7.510;2023-04-30T13:06:25;19.00;1.00
1592;DHT22;789;51.612;7.510;2023-04-30T13:08:53;19.00;1.00
1592;DHT22;789;51.612;7.510;2023-04-30T13:11:20;18.80;1.00
1592;DHT22;789;51.612;7.510;2023-04-30T13:13:48;18.70;1.00
1592;DHT22;789;51.612;7.510;2023-04-30T13:16:14;18.80;1.00
1592;DHT22;789;51.612;7.510;2023-04-30T13:18:41;18.90;1.00
1592;DHT22;789;51.612;7.510;2023-04-30T13:21:08;19.00;1.00
1592;DHT22;789;51.612;7.510;2023-04-30T13:23:35;19.10;1.00
1592;DHT22;789;51.612;7.510;2023-04-30T13:26:02;19.20;1.00
1592;DHT22;789;51.612;7.510;2023-04-30T13:28:28;19.20;1.00
1592;DHT22;789;51.612;7.510;2023-04-30T13:30:56;19.20;1.00
1592;DHT22;789;51.612;7.510;2023-04-30T13:33:23;19.20;1.00
1592;DHT22;789;51.612;7.510;2023-04-30T13:35:50;19.30;1.00
1592;DHT22;789;51.612;7.510;2023-04-30T13:38:16;19.30;1.00
1592;DHT22;789;51.612;7.510;2023-04-30T13:40:43;19.40;1.00
1592;DHT22;789;51.612;7.510;2023-04-30T13:43:10;19.40;1.00
1592;DHT22;789;51.612;7.510;2023-04-30T13:45:37;19.30;1.00
1592;DHT22;789;51.612;7.510;2023-04-30T13:48:05;19.20;1.00
1592;DHT22;789;51.612;7.510;2023-04-30T13:50:32;19.00;1.00
1592;DHT22;789;51.612;7.510;2023-04-30T13:52:58;19.00;1.00
1592;DHT22;789;51.612;7.510;2023-04-30T13:55:25;19.00;1.00
1592;DHT22;789;51.612;7.510;2023-04-30T13:57:52;19.00;1.00
1592;DHT22;789;51.612;7.510;2023-04-30T14:00:19;19.10;1.00
1592;DHT22;789;51.612;7.510;2023-04-30T14:02:46;19.00;1.00
1592;DHT22;789;51.612;7.510;2023-04-30T14:05:14;18.90;1.00
1592;DHT22;789;51.612;7.510;2023-04-30T14:07:41;18.90;1.00
1592;DHT22;789;51.612;7.510;2023-04-30T14:10:08;18.90;1.00
1592;DHT22;789;51.612;7.510;2023-04-30T14:12:34;19.00;1.00
1592;DHT22;789;51.612;7.510;2023-04-30T14:15:03;19.20;1.00
1592;DHT22;789;51.612;7.510;2023-04-30T14:17:30;19.30;1.00
1592;DHT22;789;51.612;7.510;2023-04-30T14:19:56;19.30;1.00
1592;DHT22;789;51.612;7.510;2023-04-30T14:22:24;19.20;1.00
1592;DHT22;789;51.612;7.510;2023-04-30T14:24:52;19.10;1.00
1592;DHT22;789;51.612;7.510;2023-04-30T14:27:18;19.00;1.00
1592;DHT22;789;51.612;7.510;2023-04-30T14:29:45;18.90;1.00
1592;DHT22;789;51.612;7.510;2023-04-30T14:32:12;18.80;1.00
1592;DHT22;789;51.612;7.510;2023-04-30T14:34:39;18.80;1.00
1592;DHT22;789;51.612;7.510;2023-04-30T14:37:06;18.80;1.00
1592;DHT22;789;51.612;7.510;2023-04-30T14:39:34;18.80;1.00
1592;DHT22;789;51.612;7.510;2023-04-30T14:42:00;19.00;1.00
1592;DHT22;789;51.612;7.510;2023-04-30T14:44:27;19.10;1.00
1592;DHT22;789;51.612;7.510;2023-04-30T14:46:54;19.30;1.00
1592;DHT22;789;51.612;7.510;2023-04-30T14:49:21;19.40;1.00
1592;DHT22;789;51.612;7.510;2023-04-30T14:51:47;19.40;1.00
1592;DHT22;789;51.612;7.510;2023-04-30T14:54:14;19.50;1.00
1592;DHT22;789;51.612;7.510;2023-04-30T14:56:43;19.40;1.00
1592;DHT22;789;51.612;7.510;2023-04-30T14:59:10;19.40;1.00
1592;DHT22;789;51.612;7.510;2023-04-30T15:01:37;19.20;1.00
1592;DHT22;789;51.612;7.510;2023-04-30T15:04:04;19.10;1.00
1592;DHT22;789;51.612;7.510;2023-04-30T15:06:31;18.90;1.00
1592;DHT22;789;51.612;7.510;2023-04-30T15:08:58;18.90;1.00
1592;DHT22;789;51.612;7.510;2023-04-30T15:11:25;18.80;1.00
1592;DHT22;789;51.612;7.510;2023-04-30T15:13:53;18.90;1.00
1592;DHT22;789;51.612;7.510;2023-04-30T15:16:20;18.90;1.00
1592;DHT22;789;51.612;7.510;2023-04-30T15:18:47;18.90;1.00
1592;DHT22;789;51.612;7.510;2023-04-30T15:21:14;18.90;1.00
1592;DHT22;789;51.612;7.510;2023-04-30T15:23:41;18.90;1.00
1592;DHT22;789;51.612;7.510;2023-04-30T15:26:08;18.80;1.00
1592;DHT22;789;51.612;7.510;2023-04-30T15:28:34;18.80;1.00
1592;DHT22;789;51.612;7.510;2023-04-30T15:31:02;18.70;1.00
1592;DHT22;789;51.612;7.510;2023-04-30T15:33:30;18.70;1.00
1592;DHT22;789;51.612;7.510;2023-04-30T15:35:58;18.60;1.00
1592;DHT22;789;51.612;7.510;2023-04-30T15:38:25;18.50;1.00
1592;DHT22;789;51.612;7.510;2023-04-30T15:40:52;18.50;1.00
1592;DHT22;789;51.612;7.510;2023-04-30T15:43:19;18.50;1.00
1592;DHT22;789;51.612;7.510;2023-04-30T15:45:45;18.50;1.00
1592;DHT22;789;51.612;7.510;2023-04-30T15:48:14;18.60;1.00
1592;DHT22;789;51.612;7.510;2023-04-30T15:50:40;18.50;1.00
1592;DHT22;789;51.612;7.510;2023-04-30T15:53:07;18.50;1.00
1592;DHT22;789;51.612;7.510;2023-04-30T15:55:35;18.50;1.00
1592;DHT22;789;51.612;7.510;2023-04-30T15:58:01;18.50;1.00
1592;DHT22;789;51.612;7.510;2023-04-30T16:00:29;18.50;1.00
1592;DHT22;789;51.612;7.510;2023-04-30T16:02:55;18.40;1.00
1592;DHT22;789;51.612;7.510;2023-04-30T16:05:24;18.40;1.00
1592;DHT22;789;51.612;7.510;2023-04-30T16:07:51;18.40;1.00
1592;DHT22;789;51.612;7.510;2023-04-30T16:10:18;18.40;1.00
1592;DHT22;789;51.612;7.510;2023-04-30T16:12:46;18.40;1.00
1592;DHT22;789;51.612;7.510;2023-04-30T16:15:12;18.40;1.00
1592;DHT22;789;51.612;7.510;2023-04-30T16:17:39;18.30;1.00
1592;DHT22;789;51.612;7.510;2023-04-30T16:20:07;18.30;1.00
1592;DHT22;789;51.612;7.510;2023-04-30T16:22:36;18.30;1.00
1592;DHT22;789;51.612;7.510;2023-04-30T16:25:03;18.20;1.00
1592;DHT22;789;51.612;7.510;2023-04-30T16:27:32;18.20;1.00
1592;DHT22;789;51.612;7.510;2023-04-30T16:29:58;18.20;1.00
1592;DHT22;789;51.612;7.510;2023-04-30T16:32:25;18.20;1.00
1592;DHT22;789;51.612;7.510;2023-04-30T16:34:52;18.20;1.00
1592;DHT22;789;51.612;7.510;2023-04-30T16:37:18;18.20;1.00
1592;DHT22;789;51.612;7.510;2023-04-30T16:39:46;18.30;1.00
1592;DHT22;789;51.612;7.510;2023-04-30T16:42:13;18.20;1.00
1592;DHT22;789;51.612;7.510;2023-04-30T16:44:40;18.20;1.00